Time;durP1;ratioP1;P1;durP2;ratioP2;P2;SDS_P1;SDS_P2;PMS_P1;PMS_P2;Temp;Humidity;BMP_temperature;BMP_pressure;BME280_temperature;BME280_humidity;BME280_pressure;Samples;Min_cycle;Max_cycle;Signal;HPM_P1;HPM_P2
2021/04/14 00:00:18;;;;;;;13.28;8.98;;;;;;;1.04;78.88;97522.74;1794442;78;25648;-77
2021/04/14 00:02:48;;;;;;;13.80;10.05;;;;;;;1.01;78.81;97525.69;1768839;78;25767;-76
2021/04/14 00:05:20;;;;;;;14.90;9.80;;;;;;;0.92;78.79;97517.28;1794703;78;25764;-77
2021/04/14 00:07:48;;;;;;;12.82;8.73;;;;;;;0.93;78.90;97515.47;1775306;78;27564;-76
2021/04/14 00:13:03;;;;;;;14.03;10.25;;;;;;;0.99;78.80;97514.86;1878681;74;34883;-76
2021/04/14 00:15:38;;;;;;;13.65;9.98;;;;;;;0.95;78.86;97518.81;1848201;75;25692;-75
2021/04/14 00:18:07;;;;;;;14.18;9.45;;;;;;;0.92;78.85;97517.28;1857477;75;28466;-75
2021/04/14 00:20:36;;;;;;;22.98;14.15;;;;;;;0.90;78.95;97519.74;1831707;75;25697;-76
2021/04/14 00:23:06;;;;;;;25.82;15.45;;;;;;;0.87;78.99;97522.69;1849317;75;25681;-74
2021/04/14 00:25:39;;;;;;;18.95;11.95;;;;;;;0.91;79.09;97519.59;1849107;75;25708;-73
2021/04/14 00:28:07;;;;;;;15.65;10.85;;;;;;;0.92;79.09;97514.63;1854069;76;25900;-74
2021/04/14 00:30:34;;;;;;;13.85;10.80;;;;;;;0.90;79.12;97511.28;1857301;75;28459;-74
2021/04/14 00:33:02;;;;;;;13.53;9.93;;;;;;;0.91;79.18;97512.95;1852922;75;25588;-74
2021/04/14 00:35:30;;;;;;;13.25;9.05;;;;;;;0.94;79.15;97511.33;1812917;77;25733;-74
2021/04/14 00:37:58;;;;;;;14.45;10.08;;;;;;;0.91;79.16;97516.94;1775094;79;25903;-74
2021/04/14 00:40:39;;;;;;;11.95;9.45;;;;;;;0.92;79.16;97511.13;1759507;79;25836;-74
2021/04/14 00:43:17;;;;;;;13.32;9.05;;;;;;;0.96;79.21;97505.88;1759954;79;27518;-73
2021/04/14 00:45:45;;;;;;;12.35;8.63;;;;;;;0.97;79.18;97509.69;1772895;79;25845;-73
2021/04/14 00:48:14;;;;;;;10.25;8.25;;;;;;;1.02;79.19;97509.25;1766526;79;25678;-74
2021/04/14 00:50:42;;;;;;;14.58;9.85;;;;;;;0.96;79.14;97500.56;1782451;79;25753;-74
2021/04/14 00:53:10;;;;;;;12.85;9.68;;;;;;;0.96;79.18;97505.38;1778827;79;26174;-74
2021/04/14 00:55:40;;;;;;;15.30;10.68;;;;;;;0.96;79.20;97504.05;1778796;79;27509;-75
2021/04/14 00:58:09;;;;;;;13.40;9.58;;;;;;;0.96;79.24;97504.05;1767836;79;25694;-75
2021/04/14 01:00:42;;;;;;;12.60;9.78;;;;;;;0.93;79.12;97496.38;1763376;79;25816;-75
2021/04/14 01:03:12;;;;;;;;;;;;;;;0.89;79.13;97501.63;1780838;79;25810;-76
2021/04/14 01:05:40;;;;;;;14.63;10.40;;;;;;;0.84;79.27;97501.26;1778672;79;25770;-75
2021/04/14 01:08:07;;;;;;;15.25;10.10;;;;;;;0.83;79.35;97495.59;1769737;79;27496;-76
2021/04/14 01:10:35;;;;;;;14.85;11.05;;;;;;;0.83;79.38;97498.25;1761527;79;25949;-75
2021/04/14 01:13:04;;;;;;;15.53;10.70;;;;;;;0.83;79.43;97498.74;1771119;79;25765;-77
2021/04/14 01:15:36;;;;;;;14.30;10.65;;;;;;;0.85;79.47;97497.59;1742818;80;25752;-76
2021/04/14 01:18:07;;;;;;;12.88;9.98;;;;;;;0.89;79.47;97492.81;1777079;79;25751;-76
2021/04/14 01:20:37;;;;;;;15.20;10.95;;;;;;;0.85;79.47;97489.61;1787376;79;28413;-76
2021/04/14 01:23:06;;;;;;;16.85;11.55;;;;;;;0.84;79.42;97491.12;1787205;79;25766;-75
2021/04/14 01:25:41;;;;;;;14.43;11.12;;;;;;;0.87;79.49;97494.30;1778142;79;26290;-77
2021/04/14 01:28:19;;;;;;;14.25;10.20;;;;;;;0.87;79.48;97491.63;1759510;79;25794;-76
2021/04/14 01:30:49;;;;;;;14.13;11.50;;;;;;;0.89;79.44;97494.98;1759550;79;25517;-76
2021/04/14 01:33:17;;;;;;;13.85;10.30;;;;;;;0.86;79.38;97494.44;1759617;79;27511;-76
2021/04/14 01:35:45;;;;;;;14.43;9.43;;;;;;;0.86;79.45;97489.95;1771070;78;26159;-76
2021/04/14 01:38:13;;;;;;;13.18;9.23;;;;;;;0.89;79.52;97484.84;1763008;79;25752;-76
2021/04/14 01:40:41;;;;;;;14.30;10.82;;;;;;;0.90;79.51;97487.84;1759609;78;25726;-76
2021/04/14 01:43:09;;;;;;;15.85;11.30;;;;;;;0.87;79.48;97487.65;1781678;78;25866;-76
2021/04/14 01:45:44;;;;;;;16.10;11.15;;;;;;;0.81;79.45;97489.59;1759276;79;27402;-75
2021/04/14 01:48:13;;;;;;;12.75;9.73;;;;;;;0.79;79.57;97484.07;1760769;79;25731;-78
2021/04/14 01:50:41;;;;;;;13.08;9.23;;;;;;;0.75;79.52;97479.53;1767270;79;25699;-76
2021/04/14 01:53:11;;;;;;;12.05;9.45;;;;;;;0.78;79.55;97481.06;1764847;79;26051;-75
2021/04/14 01:55:40;;;;;;;13.90;9.75;;;;;;;0.80;79.49;97479.10;1771416;79;26269;-75
2021/04/14 01:58:10;;;;;;;13.62;9.95;;;;;;;0.79;79.60;97482.74;1772191;79;27514;-75
2021/04/14 02:00:44;;;;;;;14.30;10.23;;;;;;;0.77;79.62;97474.91;1781663;79;25805;-74
2021/04/14 02:03:13;;;;;;;13.40;9.25;;;;;;;0.80;79.70;97475.12;1786768;79;25754;-75
2021/04/14 02:05:41;;;;;;;11.88;8.50;;;;;;;0.84;79.71;97476.02;1768586;79;25948;-75
2021/04/14 02:08:11;;;;;;;11.50;7.65;;;;;;;0.86;79.67;97473.17;1771903;78;25789;-75
2021/04/14 02:10:40;;;;;;;10.82;7.45;;;;;;;0.91;79.68;97470.92;1772523;78;27551;-75
2021/04/14 02:13:18;;;;;;;11.30;8.00;;;;;;;0.92;79.61;97469.94;1771964;79;25724;-75
2021/04/14 02:15:46;;;;;;;11.57;6.97;;;;;;;0.98;79.63;97467.50;1789466;78;25791;-76
2021/04/14 02:18:13;;;;;;;10.03;7.67;;;;;;;1.03;79.58;97471.89;1781187;79;25671;-75
2021/04/14 02:20:41;;;;;;;8.00;6.08;;;;;;;1.06;79.52;97469.43;1787262;79;26311;-75
2021/04/14 02:23:20;;;;;;;7.87;6.62;;;;;;;1.07;79.40;97469.28;1762591;79;27994;-75
2021/04/14 02:25:48;;;;;;;7.92;6.72;;;;;;;1.06;79.28;97469.43;1765522;79;25652;-76
2021/04/14 02:28:17;;;;;;;9.15;6.53;;;;;;;1.07;79.26;97466.62;1781081;79;26188;-75
2021/04/14 02:30:44;;;;;;;7.40;5.53;;;;;;;1.13;79.21;97468.32;1781079;79;26307;-76
2021/04/14 02:33:12;;;;;;;6.53;5.55;;;;;;;1.17;79.13;97466.55;1781188;79;25771;-76
2021/04/14 02:35:40;;;;;;;6.30;5.22;;;;;;;1.14;78.99;97458.03;1780632;79;26671;-76
2021/04/14 02:38:08;;;;;;;5.62;5.03;;;;;;;1.08;78.96;97463.47;1762627;79;25762;-75
2021/04/14 02:40:37;;;;;;;5.25;4.12;;;;;;;1.04;78.95;97461.59;1783585;79;25807;-75
2021/04/14 02:43:05;;;;;;;4.90;3.70;;;;;;;1.00;78.90;97462.87;1768252;79;26077;-76
2021/04/14 02:45:36;;;;;;;6.12;4.95;;;;;;;1.06;78.90;97466.28;1769989;79;25734;-76
2021/04/14 02:48:05;;;;;;;5.83;5.20;;;;;;;1.11;78.95;97466.30;1766264;79;27506;-76
2021/04/14 02:50:33;;;;;;;8.08;6.92;;;;;;;1.08;78.94;97470.12;1762423;78;26341;-76
2021/04/14 02:53:01;;;;;;;6.67;5.92;;;;;;;1.01;78.95;97456.58;1775160;79;26436;-76
2021/04/14 02:55:31;;;;;;;6.20;5.08;;;;;;;1.04;79.03;97464.26;1771867;79;26280;-75
2021/04/14 02:57:58;;;;;;;10.45;9.45;;;;;;;1.03;79.04;97463.91;1774984;79;25762;-76
2021/04/14 03:00:28;;;;;;;8.25;6.70;;;;;;;1.00;79.06;97457.56;1762487;79;28559;-76
2021/04/14 03:02:57;;;;;;;6.35;4.92;;;;;;;1.02;79.06;97467.55;1772945;79;25802;-76
2021/04/14 03:05:30;;;;;;;5.97;4.90;;;;;;;1.06;79.06;97464.95;1777747;79;25794;-76
2021/04/14 03:07:58;;;;;;;6.75;4.85;;;;;;;1.03;78.99;97469.72;1762419;79;26182;-77
2021/04/14 03:10:28;;;;;;;14.35;8.38;;;;;;;1.01;79.00;97467.20;1775620;79;25772;-76
2021/04/14 03:12:56;;;;;;;15.20;7.00;;;;;;;0.98;78.99;97472.81;1757458;80;27506;-76
2021/04/14 03:15:29;;;;;;;9.00;5.92;;;;;;;0.99;79.07;97474.49;1735244;79;25733;-76
2021/04/14 03:17:56;;;;;;;;;;;;;;;0.94;78.98;97474.12;1764589;79;25279;-76
2021/04/14 03:20:24;;;;;;;7.72;5.20;;;;;;;0.95;79.12;97467.83;1760576;79;25751;-77
2021/04/14 03:22:53;;;;;;;6.30;4.78;;;;;;;0.96;79.14;97467.33;1735386;79;25704;-77
2021/04/14 03:25:24;;;;;;;6.30;4.80;;;;;;;0.94;79.16;97465.31;1758781;80;28451;-76
2021/04/14 03:27:51;;;;;;;7.20;5.35;;;;;;;0.88;79.11;97465.41;1751077;79;26163;-77
2021/04/14 03:30:20;;;;;;;6.62;5.30;;;;;;;0.85;79.20;97464.36;1774428;78;25843;-77
2021/04/14 03:32:48;;;;;;;6.58;5.37;;;;;;;0.88;79.25;97461.42;1734780;79;25777;-76
2021/04/14 03:35:18;;;;;;;8.03;5.10;;;;;;;0.89;79.21;97462.26;1762447;79;26483;-77
2021/04/14 03:37:46;;;;;;;8.28;5.62;;;;;;;0.91;79.21;97463.78;1755331;81;28503;-76
2021/04/14 03:40:16;;;;;;;6.53;4.85;;;;;;;0.92;79.19;97464.63;1759639;79;25572;-76
2021/04/14 03:42:44;;;;;;;8.65;5.87;;;;;;;1.00;79.25;97459.38;1797409;78;26225;-76
2021/04/14 03:45:18;;;;;;;7.15;5.70;;;;;;;1.02;79.18;97470.22;1771778;80;26239;-76
2021/04/14 03:47:46;;;;;;;8.30;6.28;;;;;;;1.02;79.14;97464.90;1735289;79;26542;-76
2021/04/14 03:50:18;;;;;;;8.28;6.37;;;;;;;1.00;79.09;97464.20;1758655;79;27496;-76
2021/04/14 03:52:45;;;;;;;8.45;6.78;;;;;;;0.99;79.11;97469.17;1758765;79;25798;-76
2021/04/14 03:55:15;;;;;;;9.45;6.42;;;;;;;1.04;79.17;97469.58;1759991;79;25673;-77
2021/04/14 03:57:43;;;;;;;8.90;6.25;;;;;;;1.06;79.12;97467.61;1759504;79;26065;-76
2021/04/14 04:00:14;;;;;;;6.65;5.92;;;;;;;1.11;79.12;97468.95;1755968;79;25795;-76
2021/04/14 04:02:42;;;;;;;9.08;6.75;;;;;;;1.07;79.06;97471.94;1797584;79;27537;-76
2021/04/14 04:05:11;;;;;;;10.88;8.55;;;;;;;0.96;78.96;97468.17;1767337;80;25768;-77
2021/04/14 04:07:39;;;;;;;12.40;9.03;;;;;;;0.89;79.01;97474.22;1759940;79;25788;-77
2021/04/14 04:10:09;;;;;;;10.13;7.53;;;;;;;0.88;79.15;97467.22;1754677;80;25714;-76
2021/04/14 04:12:36;;;;;;;9.60;7.17;;;;;;;0.91;79.25;97469.09;1762318;79;25756;-77
2021/04/14 04:15:11;;;;;;;9.85;7.40;;;;;;;0.89;79.27;97473.72;1782629;79;28407;-77
2021/04/14 04:17:35;;;;;;;10.17;7.30;;;;;;;0.94;79.36;97474.12;1764113;79;25811;-77
2021/04/14 04:20:08;;;;;;;9.05;7.45;;;;;;;0.89;79.29;97475.05;1768516;79;25746;-77
2021/04/14 04:22:36;;;;;;;10.45;8.48;;;;;;;0.84;79.34;97476.02;1790301;79;26238;-77
2021/04/14 04:25:05;;;;;;;11.78;9.00;;;;;;;0.87;79.35;97477.51;1759671;79;26480;-77
2021/04/14 04:27:33;;;;;;;14.43;9.78;;;;;;;0.87;79.44;97481.00;1769748;79;28441;-77
2021/04/14 04:30:05;;;;;;;13.75;9.53;;;;;;;0.93;79.46;97479.09;1786366;79;25838;-78
2021/04/14 04:32:34;;;;;;;13.10;9.78;;;;;;;0.99;79.45;97483.80;1798342;78;25763;-78
2021/04/14 04:35:03;;;;;;;14.00;10.30;;;;;;;1.04;79.42;97478.04;1813617;78;25766;-77
2021/04/14 04:37:31;;;;;;;20.68;13.72;;;;;;;1.08;79.36;97476.27;1813772;78;25703;-77
2021/04/14 04:39:58;;;;;;;17.50;13.10;;;;;;;1.11;79.32;97483.58;1813817;78;28549;-77
2021/04/14 04:42:27;;;;;;;14.20;11.55;;;;;;;1.13;79.26;97481.61;1814036;78;25890;-77
2021/04/14 04:44:55;;;;;;;15.95;11.22;;;;;;;1.15;79.23;97487.63;1813722;78;26390;-78
2021/04/14 04:47:23;;;;;;;18.00;13.25;;;;;;;1.16;79.17;97485.30;1813716;78;25733;-77
2021/04/14 04:49:50;;;;;;;24.75;17.67;;;;;;;1.16;79.16;97479.98;1813636;77;26584;-78
2021/04/14 04:52:18;;;;;;;16.00;11.48;;;;;;;1.14;79.03;97477.48;1813749;78;28473;-77
2021/04/14 04:54:46;;;;;;;19.57;14.50;;;;;;;1.09;78.98;97474.42;1813624;78;25819;-78
2021/04/14 04:57:13;;;;;;;23.80;16.55;;;;;;;1.11;79.08;97488.90;1813704;78;25794;-77
2021/04/14 04:59:41;;;;;;;14.65;10.35;;;;;;;1.13;79.07;97493.58;1813960;78;25837;-78
2021/04/14 05:02:08;;;;;;;13.20;10.55;;;;;;;1.00;78.89;97489.45;1814416;78;25793;-78
2021/04/14 05:04:36;;;;;;;21.10;15.58;;;;;;;0.95;78.90;97502.38;1813953;77;27297;-79
2021/04/14 05:07:03;;;;;;;30.88;19.17;;;;;;;0.96;79.05;97488.11;1813737;78;25368;-78
2021/04/14 05:09:31;;;;;;;34.95;19.05;;;;;;;1.00;79.15;97497.44;1813885;78;26190;-79
2021/04/14 05:11:59;;;;;;;24.75;14.58;;;;;;;1.02;79.06;97500.78;1813812;78;25517;-79
2021/04/14 05:14:26;;;;;;;32.45;17.50;;;;;;;0.97;79.09;97503.04;1816967;78;25725;-78
2021/04/14 05:16:54;;;;;;;104.05;48.85;;;;;;;1.00;79.15;97505.41;1817539;78;28463;-79
2021/04/14 05:19:22;;;;;;;91.63;46.92;;;;;;;1.05;79.20;97507.14;1817451;78;25773;-78
2021/04/14 05:21:51;;;;;;;55.00;31.68;;;;;;;1.08;79.18;97508.17;1817625;78;25670;-79
2021/04/14 05:24:19;;;;;;;32.83;20.60;;;;;;;1.03;79.09;97506.94;1817622;78;25840;-79
2021/04/14 05:26:46;;;;;;;20.00;13.18;;;;;;;0.99;79.13;97511.70;1817643;78;25702;-79
2021/04/14 05:29:14;;;;;;;16.90;9.95;;;;;;;0.95;79.08;97504.20;1817611;78;27463;-78
2021/04/14 05:31:42;;;;;;;14.95;9.68;;;;;;;0.93;79.19;97508.82;1817497;78;26087;-79
2021/04/14 05:34:09;;;;;;;24.47;14.07;;;;;;;0.95;79.25;97515.67;1817519;78;26296;-79
2021/04/14 05:36:38;;;;;;;45.25;18.30;;;;;;;1.02;79.29;97510.58;1817665;78;26475;-79
2021/04/14 05:39:06;;;;;;;27.17;13.93;;;;;;;1.06;79.29;97515.45;1817567;78;26014;-79
2021/04/14 05:41:34;;;;;;;31.42;15.10;;;;;;;1.08;79.29;97505.52;1817631;78;28499;-79
2021/04/14 05:44:02;;;;;;;28.17;13.98;;;;;;;1.14;79.18;97519.18;1817592;78;26156;-79
2021/04/14 05:46:30;;;;;;;52.58;20.77;;;;;;;1.13;79.12;97517.50;1817509;78;25706;-79
2021/04/14 05:48:58;;;;;;;27.77;12.60;;;;;;;1.08;79.05;97508.17;1817562;78;26254;-79
2021/04/14 05:51:30;;;;;;;26.87;12.47;;;;;;;1.11;79.09;97514.16;1817592;78;25822;-79
2021/04/14 05:54:00;;;;;;;19.98;10.82;;;;;;;1.11;79.09;97504.36;1817674;78;28468;-79
2021/04/14 05:56:29;;;;;;;18.92;10.78;;;;;;;1.16;79.14;97507.91;1817517;78;26037;-80
2021/04/14 05:58:58;;;;;;;18.55;12.43;;;;;;;1.21;79.08;97516.28;1817524;78;25786;-81
2021/04/14 06:01:29;;;;;;;12.53;9.48;;;;;;;1.23;79.05;97517.78;1817601;78;25713;-80
2021/04/14 06:03:57;;;;;;;17.07;12.23;;;;;;;1.25;78.59;97513.64;1817896;78;25343;-80
2021/04/14 06:06:26;;;;;;;12.93;8.38;;;;;;;1.25;78.59;97513.64;1817641;78;28465;-80
2021/04/14 06:08:53;;;;;;;13.13;9.53;;;;;;;1.28;78.99;97507.54;1817466;78;25739;-79
2021/04/14 06:11:21;;;;;;;7.47;6.03;;;;;;;1.31;78.90;97502.42;1817524;78;25803;-81
2021/04/14 06:13:50;;;;;;;8.35;6.67;;;;;;;1.33;78.81;97508.40;1816039;78;25739;-79
2021/04/14 06:16:19;;;;;;;12.23;8.25;;;;;;;1.32;78.83;97510.25;1814076;78;25798;-80
2021/04/14 06:18:46;;;;;;;12.63;8.83;;;;;;;1.25;78.82;97509.66;1813874;77;27506;-81
2021/04/14 06:21:16;;;;;;;12.53;9.33;;;;;;;1.29;78.91;97525.17;1814105;78;25766;-80
2021/04/14 06:23:46;;;;;;;10.82;9.13;;;;;;;1.35;79.00;97520.56;1814010;78;25722;-80
2021/04/14 06:26:25;;;;;;;9.78;8.58;;;;;;;1.35;78.89;97519.73;1810606;78;25824;-78
2021/04/14 06:28:52;;;;;;;11.55;8.35;;;;;;;1.37;78.95;97525.73;1761227;79;25751;-79
2021/04/14 06:31:19;;;;;;;12.45;7.50;;;;;;;1.42;78.93;97521.65;1776843;78;28472;-78
2021/04/14 06:33:50;;;;;;;8.33;6.42;;;;;;;1.45;78.83;97521.81;1788826;78;26090;-78
2021/04/14 06:36:19;;;;;;;10.50;6.85;;;;;;;1.40;78.55;97517.46;1767729;78;26024;-78
2021/04/14 06:38:48;;;;;;;11.68;7.55;;;;;;;1.33;78.63;97515.88;1762127;78;26389;-77
2021/04/14 06:41:55;;;;;;;7.95;6.05;;;;;;;1.38;78.69;97517.61;1775610;78;25742;-76
2021/04/14 06:44:52;;;;;;;12.03;7.80;;;;;;;1.35;78.71;97507.27;1720521;81;27448;-75
2021/04/14 06:47:51;;;;;;;10.85;6.97;;;;;;;1.33;78.74;97511.05;1709346;81;25355;-76
2021/04/14 06:53:44;;;;;;;9.03;6.90;;;;;;;1.46;78.60;97519.50;1808750;76;32666;-74
2021/04/14 06:56:18;;;;;;;8.43;5.87;;;;;;;1.56;78.43;97518.95;1791952;78;25940;-76
2021/04/14 06:58:56;;;;;;;5.50;4.65;;;;;;;1.58;78.19;97522.27;1813035;78;27488;-74
2021/04/14 07:01:41;;;;;;;6.97;5.03;;;;;;;1.54;78.25;97514.28;1802370;77;26465;-79
2021/04/14 07:04:20;;;;;;;11.12;8.00;;;;;;;1.55;78.28;97518.61;1805997;78;25727;-76
2021/04/14 07:06:50;;;;;;;9.13;7.00;;;;;;;1.56;78.36;97516.79;1816108;78;25850;-77
2021/04/14 07:09:32;;;;;;;11.60;5.78;;;;;;;1.63;78.34;97529.31;1787155;78;25815;-77
2021/04/14 07:12:02;;;;;;;8.83;4.80;;;;;;;1.69;78.32;97527.36;1813595;78;27492;-77
2021/04/14 07:14:30;;;;;;;6.62;4.40;;;;;;;1.67;78.18;97529.37;1821931;78;26102;-77
2021/04/14 07:17:41;;;;;;;7.30;4.60;;;;;;;1.69;78.23;97531.36;1822020;78;25766;-77
2021/04/14 07:20:15;;;;;;;6.10;4.70;;;;;;;1.73;78.27;97531.40;1799435;78;25812;-77
2021/04/14 07:23:01;;;;;;;8.63;5.10;;;;;;;1.79;78.22;97526.81;1803413;78;25879;-77
2021/04/14 07:25:48;;;;;;;9.88;6.42;;;;;;;1.74;78.06;97531.74;1808588;78;27483;-79
2021/04/14 07:28:38;;;;;;;6.22;4.78;;;;;;;1.71;78.09;97528.05;1797264;78;26140;-77
2021/04/14 07:31:41;;;;;;;7.83;4.67;;;;;;;1.69;77.99;97526.03;1810599;78;25777;-78
2021/04/14 07:34:51;;;;;;;8.93;5.10;;;;;;;1.61;77.87;97527.30;1791227;78;25707;-80
2021/04/14 07:37:34;;;;;;;3.17;2.47;;;;;;;1.61;77.95;97536.61;1822070;78;25716;-79
2021/04/14 07:40:20;;;;;;;4.42;2.95;;;;;;;1.57;77.51;97536.56;1821919;78;28438;-80
2021/04/14 07:43:18;;;;;;;5.45;4.12;;;;;;;1.67;77.71;97547.16;1821848;78;25722;-79
2021/04/14 07:45:48;;;;;;;5.72;4.53;;;;;;;1.73;77.81;97539.38;1821864;78;26112;-80
2021/04/14 07:48:27;;;;;;;3.87;3.22;;;;;;;1.86;77.96;97547.47;1816864;78;25766;-79
2021/04/14 07:51:00;;;;;;;4.97;3.20;;;;;;;1.94;77.80;97544.87;1778068;78;26048;-79
2021/04/14 07:53:33;;;;;;;5.08;3.98;;;;;;;1.85;77.47;97555.95;1778276;78;27292;-79
2021/04/14 07:56:18;;;;;;;6.00;3.83;;;;;;;1.87;77.56;97549.15;1778137;78;25834;-78
2021/04/14 07:58:47;;;;;;;5.55;3.30;;;;;;;1.95;77.56;97564.69;1814910;78;25926;-77
2021/04/14 08:01:19;;;;;;;5.30;3.30;;;;;;;1.85;77.24;97551.96;1803318;78;25755;-77
2021/04/14 08:03:49;;;;;;;7.87;5.90;;;;;;;1.77;77.08;97560.72;1797903;78;25632;-78
2021/04/14 08:06:30;;;;;;;7.60;5.15;;;;;;;1.81;77.26;97552.75;1777669;78;27494;-78
2021/04/14 08:09:04;;;;;;;8.98;5.28;;;;;;;1.97;77.43;97552.55;1790488;78;25657;-78
2021/04/14 08:11:35;;;;;;;11.90;7.03;;;;;;;2.07;77.41;97551.97;1791496;78;26381;-77
2021/04/14 08:14:31;;;;;;;8.00;6.33;;;;;;;2.13;77.54;97554.02;1802519;78;26118;-77
2021/04/14 08:17:02;;;;;;;10.40;6.65;;;;;;;2.24;77.57;97552.44;1728515;81;25824;-77
2021/04/14 08:19:31;;;;;;;17.60;12.13;;;;;;;2.40;77.45;97555.23;1724287;80;27496;-77
2021/04/14 08:22:16;;;;;;;16.17;9.55;;;;;;;2.50;77.33;97555.95;1730813;80;25735;-78
2021/04/14 08:25:01;;;;;;;11.95;8.73;;;;;;;2.61;77.21;97552.67;1734427;80;25745;-79
2021/04/14 08:27:39;;;;;;;10.15;7.87;;;;;;;2.68;77.08;97546.55;1724668;81;26416;-78
2021/04/14 08:33:00;;;;;;;10.05;6.33;;;;;;;2.85;76.78;97550.97;1848513;76;34823;-80
2021/04/14 08:35:41;;;;;;;10.00;7.50;;;;;;;2.82;76.71;97551.78;1789055;78;25821;-81
2021/04/14 08:38:13;;;;;;;11.93;7.28;;;;;;;2.89;76.70;97550.16;1800997;77;28388;-80
2021/04/14 08:40:59;;;;;;;12.13;7.90;;;;;;;2.92;76.67;97547.16;1783052;78;25720;-80
2021/04/14 08:43:42;;;;;;;10.63;6.90;;;;;;;2.89;76.49;97541.67;1788794;78;25801;-79
2021/04/14 08:46:19;;;;;;;8.65;5.80;;;;;;;2.82;76.38;97549.11;1783051;78;27043;-79
2021/04/14 08:48:55;;;;;;;7.42;5.40;;;;;;;2.85;76.37;97551.47;1798892;78;25800;-80
2021/04/14 08:51:25;;;;;;;8.75;5.95;;;;;;;2.92;76.32;97556.48;1802058;78;28392;-79
2021/04/14 08:53:56;;;;;;;9.88;6.25;;;;;;;2.89;76.22;97548.83;1775939;78;26109;-78
2021/04/14 08:56:26;;;;;;;7.12;5.08;;;;;;;2.99;76.27;97552.20;1781386;78;25736;-79
2021/04/14 08:58:57;;;;;;;8.25;5.47;;;;;;;3.06;76.12;97545.22;1798076;78;25328;-79
2021/04/14 09:01:31;;;;;;;9.90;5.92;;;;;;;3.04;75.98;97548.54;1776310;78;25784;-78
2021/04/14 09:04:01;;;;;;;7.97;5.67;;;;;;;3.02;75.88;97547.86;1777806;78;27477;-78
2021/04/14 09:06:32;;;;;;;9.80;5.90;;;;;;;3.03;75.82;97546.86;1809836;78;26226;-78
2021/04/14 09:09:06;;;;;;;8.08;5.65;;;;;;;2.98;75.71;97545.70;1760056;78;25869;-79
2021/04/14 09:11:35;;;;;;;9.58;6.20;;;;;;;2.98;75.75;97551.86;1776239;78;25711;-79
2021/04/14 09:14:21;;;;;;;7.83;4.92;;;;;;;2.99;75.78;97542.87;1776464;78;25779;-80
2021/04/14 09:16:58;;;;;;;9.58;5.70;;;;;;;3.03;75.69;97546.03;1788958;78;27488;-79
2021/04/14 09:19:34;;;;;;;13.95;8.23;;;;;;;3.08;75.72;97548.56;1781608;78;26206;-80
2021/04/14 09:22:17;;;;;;;10.55;7.60;;;;;;;3.09;75.65;97550.23;1794069;78;26398;-79
2021/04/14 09:24:58;;;;;;;12.00;7.70;;;;;;;3.04;75.62;97540.54;1798276;78;25720;-79
2021/04/14 09:27:34;;;;;;;11.38;6.53;;;;;;;3.07;75.61;97548.23;1803252;78;25675;-80
2021/04/14 09:30:34;;;;;;;9.28;6.20;;;;;;;2.91;75.41;97550.81;1799372;78;27301;-79
2021/04/14 09:33:15;;;;;;;7.65;4.47;;;;;;;2.90;75.46;97545.98;1804493;78;25785;-78
2021/04/14 09:35:59;;;;;;;3.37;2.50;;;;;;;2.86;75.29;97543.31;1810160;78;25781;-79
2021/04/14 09:38:43;;;;;;;5.92;3.42;;;;;;;2.81;75.11;97543.44;1795214;78;25810;-78
2021/04/14 09:41:25;;;;;;;6.08;4.42;;;;;;;2.53;74.90;97544.98;1814133;78;25682;-78
2021/04/14 09:44:01;;;;;;;9.05;4.55;;;;;;;2.57;75.16;97542.81;1818169;78;28510;-78
2021/04/14 09:46:37;;;;;;;7.95;4.05;;;;;;;2.58;75.13;97541.83;1792748;78;26254;-78
2021/04/14 09:49:16;;;;;;;3.80;3.27;;;;;;;2.42;75.04;97538.56;1800212;78;25741;-79
2021/04/14 09:52:00;;;;;;;4.92;3.47;;;;;;;2.40;75.21;97541.91;1801674;78;25700;-78
2021/04/14 09:54:32;;;;;;;5.33;3.50;;;;;;;2.42;75.15;97544.38;1800850;78;25786;-78
2021/04/14 09:57:04;;;;;;;;;;;;;;;2.51;75.35;97541.64;1795348;78;27475;-78
2021/04/14 09:59:39;;;;;;;5.20;3.90;;;;;;;2.67;75.33;97545.36;1776310;78;25775;-77
2021/04/14 10:02:16;;;;;;;7.90;5.53;;;;;;;2.80;75.34;97545.77;1811780;78;25716;-78
2021/04/14 10:04:46;;;;;;;10.65;6.20;;;;;;;2.91;75.32;97538.81;1811378;78;26211;-77
2021/04/14 10:07:20;;;;;;;12.13;7.00;;;;;;;2.97;75.16;97542.19;1793227;78;25850;-78
2021/04/14 10:09:48;;;;;;;9.53;5.97;;;;;;;3.00;75.11;97544.55;1800627;78;28855;-78
2021/04/14 10:12:20;;;;;;;12.63;6.85;;;;;;;3.05;74.95;97533.38;1792423;78;25727;-77
2021/04/14 10:14:53;;;;;;;7.47;5.62;;;;;;;2.99;74.76;97535.37;1804732;78;25784;-77
2021/04/14 10:17:26;;;;;;;8.55;6.22;;;;;;;2.99;74.87;97541.54;1801155;78;25798;-77
2021/04/14 10:19:57;;;;;;;10.08;6.22;;;;;;;3.08;75.04;97532.56;1806200;78;25766;-77
2021/04/14 10:22:34;;;;;;;9.90;7.00;;;;;;;3.09;75.01;97536.91;1819837;78;27605;-78
2021/04/14 10:25:18;;;;;;;11.40;6.72;;;;;;;3.16;74.95;97536.58;1797652;78;26124;-78
2021/04/14 10:27:51;;;;;;;9.03;7.25;;;;;;;3.19;74.88;97534.93;1806095;78;25562;-78
2021/04/14 10:30:24;;;;;;;9.00;6.58;;;;;;;3.25;74.77;97540.97;1814747;78;25352;-76
2021/04/14 10:32:53;;;;;;;9.13;6.40;;;;;;;3.23;74.60;97530.12;1807558;77;25849;-76
2021/04/14 10:35:26;;;;;;;7.55;5.03;;;;;;;3.18;74.55;97531.09;1806283;77;27463;-78
2021/04/14 10:37:56;;;;;;;7.45;5.17;;;;;;;3.23;74.62;97529.62;1794193;77;26178;-78
2021/04/14 10:40:32;;;;;;;7.42;4.83;;;;;;;3.26;74.41;97526.60;1786298;78;25940;-76
2021/04/14 10:43:20;;;;;;;7.30;4.85;;;;;;;3.29;74.38;97527.28;1783137;78;25740;-79
2021/04/14 10:46:15;;;;;;;5.90;3.80;;;;;;;3.20;74.11;97526.44;1789495;78;25722;-77
2021/04/14 10:48:49;;;;;;;5.00;3.50;;;;;;;3.15;74.03;97526.91;1783313;78;28278;-77
2021/04/14 10:51:22;;;;;;;6.50;4.50;;;;;;;3.08;73.84;97529.89;1775415;78;25684;-79
2021/04/14 10:53:57;;;;;;;6.20;3.67;;;;;;;2.98;73.78;97519.86;1803090;78;25775;-79
2021/04/14 10:56:31;;;;;;;5.53;3.22;;;;;;;2.95;73.93;97525.51;1803014;78;25739;-79
2021/04/14 10:59:04;;;;;;;5.33;3.27;;;;;;;3.00;74.08;97525.88;1802981;78;25754;-79
2021/04/14 11:01:39;;;;;;;6.65;4.00;;;;;;;2.89;73.75;97528.34;1783732;78;27484;-79
2021/04/14 11:04:35;;;;;;;5.30;3.62;;;;;;;2.89;73.93;97524.84;1803969;78;26371;-78
2021/04/14 11:09:48;;;;;;;6.75;4.65;;;;;;;3.24;74.24;97523.28;1844938;76;29034;-79
2021/04/14 11:12:22;;;;;;;8.45;4.95;;;;;;;3.27;74.11;97528.77;1834558;77;25750;-79
2021/04/14 11:14:55;;;;;;;8.08;5.15;;;;;;;3.35;74.01;97533.31;1834705;77;27492;-79
2021/04/14 11:17:30;;;;;;;10.43;6.28;;;;;;;3.40;73.91;97527.80;1825280;77;26248;-79
2021/04/14 11:20:12;;;;;;;12.82;6.83;;;;;;;3.43;73.81;97532.83;1812448;77;25758;-80
2021/04/14 11:22:49;;;;;;;10.15;6.28;;;;;;;3.42;73.74;97538.32;1781615;79;25726;-80
2021/04/14 11:25:31;;;;;;;10.70;5.70;;;;;;;3.43;73.80;97529.32;1784161;78;25671;-80
2021/04/14 11:28:07;;;;;;;6.65;4.35;;;;;;;3.46;73.68;97523.66;1778287;80;27674;-79
2021/04/14 11:30:59;;;;;;;7.65;4.35;;;;;;;3.40;73.44;97532.30;1759835;78;26153;-80
2021/04/14 11:33:45;;;;;;;8.25;4.62;;;;;;;3.42;73.42;97530.31;1786235;80;25778;-79
2021/04/14 11:36:30;;;;;;;7.42;3.52;;;;;;;3.37;73.22;97532.16;1779583;80;26084;-80
2021/04/14 11:39:16;;;;;;;4.97;3.70;;;;;;;3.33;73.11;97535.30;1743098;80;25743;-79
2021/04/14 11:41:47;;;;;;;5.70;3.17;;;;;;;3.16;73.05;97531.25;1769531;79;28497;-80
2021/04/14 11:44:20;;;;;;;6.08;3.95;;;;;;;3.17;73.17;97524.91;1795027;79;26161;-79
2021/04/14 11:47:03;;;;;;;6.67;3.52;;;;;;;3.18;73.05;97531.92;1767306;80;26281;-79
2021/04/14 11:49:36;;;;;;;8.15;4.65;;;;;;;3.25;73.07;97531.63;1775796;80;25679;-79
2021/04/14 11:52:33;;;;;;;9.68;5.42;;;;;;;3.26;73.02;97524.44;1766413;79;25825;-79
2021/04/14 11:55:21;;;;;;;10.55;5.33;;;;;;;3.24;72.91;97530.45;1766852;79;27557;-78
2021/04/14 11:58:00;;;;;;;11.28;5.33;;;;;;;3.23;72.94;97529.62;1794435;78;25739;-79
2021/04/14 12:00:39;;;;;;;7.05;4.80;;;;;;;3.28;73.32;97525.61;1782589;78;25797;-78
2021/04/14 12:03:35;;;;;;;9.53;5.58;;;;;;;3.39;73.67;97530.63;1787481;78;25917;-79
2021/04/14 12:06:05;;;;;;;7.03;4.80;;;;;;;3.38;73.15;97524.46;1813847;78;25363;-77
2021/04/14 12:08:32;;;;;;;8.48;5.47;;;;;;;3.37;72.96;97524.66;1779953;80;28472;-77
2021/04/14 12:11:02;;;;;;;8.13;5.20;;;;;;;3.43;72.96;97523.98;1829394;77;25650;-78
2021/04/14 12:13:30;;;;;;;15.60;6.70;;;;;;;3.46;72.89;97526.33;1825475;77;25753;-78
2021/04/14 12:15:58;;;;;;;11.65;6.40;;;;;;;3.45;72.74;97527.33;1824485;77;25768;-78